sensor_id;sensor_type;location;lat;lon;timestamp;temperature;humidity
71096;DHT22;58753;49.440;11.126;2024-02-26T00:00:09;1.20;87.83
71096;DHT22;58753;49.440;11.126;2024-02-26T00:02:37;1.19;87.56
71096;DHT22;58753;49.440;11.126;2024-02-26T00:05:06;1.19;87.83
71096;DHT22;58753;49.440;11.126;2024-02-26T00:07:32;1.19;87.94
71096;DHT22;58753;49.440;11.126;2024-02-26T00:09:57;1.17;88.06
71096;DHT22;58753;49.440;11.126;2024-02-26T00:12:23;1.19;88.17
71096;DHT22;58753;49.440;11.126;2024-02-26T00:14:48;1.15;88.06
71096;DHT22;58753;49.440;11.126;2024-02-26T00:17:15;1.10;88.00
71096;DHT22;58753;49.440;11.126;2024-02-26T00:19:41;1.04;87.91
71096;DHT22;58753;49.440;11.126;2024-02-26T00:22:06;0.99;87.99
71096;DHT22;58753;49.440;11.126;2024-02-26T00:24:31;0.93;88.12
71096;DHT22;58753;49.440;11.126;2024-02-26T00:26:57;0.90;88.27
71096;DHT22;58753;49.440;11.126;2024-02-26T00:29:22;0.89;88.26
71096;DHT22;58753;49.440;11.126;2024-02-26T00:31:48;0.82;88.39
71096;DHT22;58753;49.440;11.126;2024-02-26T00:34:14;0.79;88.38
71096;DHT22;58753;49.440;11.126;2024-02-26T00:36:39;0.82;88.65
71096;DHT22;58753;49.440;11.126;2024-02-26T00:39:05;0.80;88.63
71096;DHT22;58753;49.440;11.126;2024-02-26T00:41:30;0.76;88.62
71096;DHT22;58753;49.440;11.126;2024-02-26T00:43:55;0.76;88.75
71096;DHT22;58753;49.440;11.126;2024-02-26T00:46:21;0.72;88.89
71096;DHT22;58753;49.440;11.126;2024-02-26T00:48:46;0.66;88.75
71096;DHT22;58753;49.440;11.126;2024-02-26T00:51:12;0.63;88.58
71096;DHT22;58753;49.440;11.126;2024-02-26T00:53:37;0.55;88.57
71096;DHT22;58753;49.440;11.126;2024-02-26T00:56:03;0.52;88.79
71096;DHT22;58753;49.440;11.126;2024-02-26T00:58:28;0.55;89.13
71096;DHT22;58753;49.440;11.126;2024-02-26T01:00:54;0.58;89.29
71096;DHT22;58753;49.440;11.126;2024-02-26T01:03:20;0.53;89.04
71096;DHT22;58753;49.440;11.126;2024-02-26T01:05:45;0.48;89.01
71096;DHT22;58753;49.440;11.126;2024-02-26T01:08:11;0.46;89.03
71096;DHT22;58753;49.440;11.126;2024-02-26T01:10:36;0.42;89.09
71096;DHT22;58753;49.440;11.126;2024-02-26T01:13:02;0.41;89.24
71096;DHT22;58753;49.440;11.126;2024-02-26T01:15:27;0.40;89.52
71096;DHT22;58753;49.440;11.126;2024-02-26T01:17:53;0.45;89.51
71096;DHT22;58753;49.440;11.126;2024-02-26T01:20:19;0.46;89.47
71096;DHT22;58753;49.440;11.126;2024-02-26T01:22:44;0.45;89.47
71096;DHT22;58753;49.440;11.126;2024-02-26T01:25:10;0.46;89.66
71096;DHT22;58753;49.440;11.126;2024-02-26T01:27:39;0.45;89.71
71096;DHT22;58753;49.440;11.126;2024-02-26T01:30:06;0.46;89.91
71096;DHT22;58753;49.440;11.126;2024-02-26T01:32:32;0.45;89.79
71096;DHT22;58753;49.440;11.126;2024-02-26T01:34:57;0.48;89.89
71096;DHT22;58753;49.440;11.126;2024-02-26T01:37:23;0.45;89.97
71096;DHT22;58753;49.440;11.126;2024-02-26T01:39:48;0.48;89.94
71096;DHT22;58753;49.440;11.126;2024-02-26T01:42:14;0.48;90.16
71096;DHT22;58753;49.440;11.126;2024-02-26T01:44:39;0.52;90.20
71096;DHT22;58753;49.440;11.126;2024-02-26T01:47:10;0.53;90.19
71096;DHT22;58753;49.440;11.126;2024-02-26T01:49:36;0.56;90.15
71096;DHT22;58753;49.440;11.126;2024-02-26T01:52:03;0.52;90.07
71096;DHT22;58753;49.440;11.126;2024-02-26T01:54:30;0.51;90.12
71096;DHT22;58753;49.440;11.126;2024-02-26T01:56:56;0.52;90.18
71096;DHT22;58753;49.440;11.126;2024-02-26T01:59:22;0.51;90.20
71096;DHT22;58753;49.440;11.126;2024-02-26T02:01:48;0.48;90.14
71096;DHT22;58753;49.440;11.126;2024-02-26T02:04:16;0.51;90.15
71096;DHT22;58753;49.440;11.126;2024-02-26T02:06:42;0.46;90.23
71096;DHT22;58753;49.440;11.126;2024-02-26T02:09:10;0.44;90.22
71096;DHT22;58753;49.440;11.126;2024-02-26T02:11:36;0.44;90.35
71096;DHT22;58753;49.440;11.126;2024-02-26T02:14:01;0.49;90.53
71096;DHT22;58753;49.440;11.126;2024-02-26T02:16:27;0.49;90.49
71096;DHT22;58753;49.440;11.126;2024-02-26T02:18:52;0.53;90.68
71096;DHT22;58753;49.440;11.126;2024-02-26T02:21:17;0.51;90.36
71096;DHT22;58753;49.440;11.126;2024-02-26T02:23:43;0.48;90.17
71096;DHT22;58753;49.440;11.126;2024-02-26T02:26:12;0.46;90.25
71096;DHT22;58753;49.440;11.126;2024-02-26T02:28:39;0.45;90.31
71096;DHT22;58753;49.440;11.126;2024-02-26T02:31:05;0.45;90.47
71096;DHT22;58753;49.440;11.126;2024-02-26T02:33:31;0.49;90.61
71096;DHT22;58753;49.440;11.126;2024-02-26T02:35:56;0.56;90.71
71096;DHT22;58753;49.440;11.126;2024-02-26T02:38:23;0.63;90.82
71096;DHT22;58753;49.440;11.126;2024-02-26T02:40:51;0.69;90.77
71096;DHT22;58753;49.440;11.126;2024-02-26T02:43:16;0.73;90.74
71096;DHT22;58753;49.440;11.126;2024-02-26T02:45:42;0.82;90.82
71096;DHT22;58753;49.440;11.126;2024-02-26T02:48:07;0.86;90.92
71096;DHT22;58753;49.440;11.126;2024-02-26T02:50:33;0.93;90.79
71096;DHT22;58753;49.440;11.126;2024-02-26T02:52:58;0.93;90.64
71096;DHT22;58753;49.440;11.126;2024-02-26T02:55:23;0.97;90.68
71096;DHT22;58753;49.440;11.126;2024-02-26T02:57:49;1.00;90.88
71096;DHT22;58753;49.440;11.126;2024-02-26T03:00:14;1.01;90.95
71096;DHT22;58753;49.440;11.126;2024-02-26T03:02:40;1.08;91.02
71096;DHT22;58753;49.440;11.126;2024-02-26T03:05:06;1.13;91.07
71096;DHT22;58753;49.440;11.126;2024-02-26T03:07:32;1.17;90.99
71096;DHT22;58753;49.440;11.126;2024-02-26T03:09:57;1.20;91.06
71096;DHT22;58753;49.440;11.126;2024-02-26T03:12:23;1.26;91.12
71096;DHT22;58753;49.440;11.126;2024-02-26T03:14:48;1.30;91.15
71096;DHT22;58753;49.440;11.126;2024-02-26T03:17:14;1.33;91.14
71096;DHT22;58753;49.440;11.126;2024-02-26T03:19:40;1.37;91.08
71096;DHT22;58753;49.440;11.126;2024-02-26T03:22:05;1.41;91.03
71096;DHT22;58753;49.440;11.126;2024-02-26T03:24:31;1.41;91.09
71096;DHT22;58753;49.440;11.126;2024-02-26T03:26:56;1.41;90.95
71096;DHT22;58753;49.440;11.126;2024-02-26T03:29:22;1.41;90.91
71096;DHT22;58753;49.440;11.126;2024-02-26T03:31:48;1.43;90.80
71096;DHT22;58753;49.440;11.126;2024-02-26T03:34:13;1.43;90.91
71096;DHT22;58753;49.440;11.126;2024-02-26T03:36:40;1.40;91.04
71096;DHT22;58753;49.440;11.126;2024-02-26T03:39:06;1.43;91.16
71096;DHT22;58753;49.440;11.126;2024-02-26T03:41:33;1.43;91.19
71096;DHT22;58753;49.440;11.126;2024-02-26T03:43:59;1.46;91.13
71096;DHT22;58753;49.440;11.126;2024-02-26T03:46:24;1.38;90.98
71096;DHT22;58753;49.440;11.126;2024-02-26T03:48:49;1.37;91.04
71096;DHT22;58753;49.440;11.126;2024-02-26T03:51:15;1.34;91.27
71096;DHT22;58753;49.440;11.126;2024-02-26T03:53:40;1.31;91.14
71096;DHT22;58753;49.440;11.126;2024-02-26T03:56:06;1.30;91.10
71096;DHT22;58753;49.440;11.126;2024-02-26T03:58:32;1.30;91.33
71096;DHT22;58753;49.440;11.126;2024-02-26T04:00:59;1.34;91.61
71096;DHT22;58753;49.440;11.126;2024-02-26T04:03:24;1.33;91.53
71096;DHT22;58753;49.440;11.126;2024-02-26T04:05:50;1.34;91.33
71096;DHT22;58753;49.440;11.126;2024-02-26T04:08:16;1.36;91.31
71096;DHT22;58753;49.440;11.126;2024-02-26T04:10:41;1.34;91.54
71096;DHT22;58753;49.440;11.126;2024-02-26T04:13:08;1.36;91.67
71096;DHT22;58753;49.440;11.126;2024-02-26T04:15:33;1.46;91.71
71096;DHT22;58753;49.440;11.126;2024-02-26T04:17:59;1.46;91.50
71096;DHT22;58753;49.440;11.126;2024-02-26T04:20:24;1.47;91.61
71096;DHT22;58753;49.440;11.126;2024-02-26T04:22:50;1.48;91.76
71096;DHT22;58753;49.440;11.126;2024-02-26T04:25:15;1.51;91.70
71096;DHT22;58753;49.440;11.126;2024-02-26T04:27:40;1.51;91.56
71096;DHT22;58753;49.440;11.126;2024-02-26T04:30:07;1.52;91.61
71096;DHT22;58753;49.440;11.126;2024-02-26T04:32:32;1.55;91.64
71096;DHT22;58753;49.440;11.126;2024-02-26T04:34:59;1.54;91.70
71096;DHT22;58753;49.440;11.126;2024-02-26T04:37:25;1.60;91.89
71096;DHT22;58753;49.440;11.126;2024-02-26T04:39:50;1.64;91.87
71096;DHT22;58753;49.440;11.126;2024-02-26T04:42:15;1.65;91.86
71096;DHT22;58753;49.440;11.126;2024-02-26T04:44:41;1.64;91.63
71096;DHT22;58753;49.440;11.126;2024-02-26T04:47:06;1.65;91.72
71096;DHT22;58753;49.440;11.126;2024-02-26T04:49:32;1.65;91.84
71096;DHT22;58753;49.440;11.126;2024-02-26T04:51:59;1.71;91.83
71096;DHT22;58753;49.440;11.126;2024-02-26T04:54:24;1.71;91.95
71096;DHT22;58753;49.440;11.126;2024-02-26T04:56:49;1.75;91.96
71096;DHT22;58753;49.440;11.126;2024-02-26T04:59:15;1.77;91.96
71096;DHT22;58753;49.440;11.126;2024-02-26T05:01:40;1.78;91.94
71096;DHT22;58753;49.440;11.126;2024-02-26T05:04:06;1.77;91.88
71096;DHT22;58753;49.440;11.126;2024-02-26T05:06:32;1.78;91.99
71096;DHT22;58753;49.440;11.126;2024-02-26T05:08:57;1.79;91.90
71096;DHT22;58753;49.440;11.126;2024-02-26T05:11:22;1.82;92.03
71096;DHT22;58753;49.440;11.126;2024-02-26T05:13:48;1.79;92.00
71096;DHT22;58753;49.440;11.126;2024-02-26T05:16:13;1.79;91.86
71096;DHT22;58753;49.440;11.126;2024-02-26T05:18:39;1.82;91.91
71096;DHT22;58753;49.440;11.126;2024-02-26T05:21:04;1.81;91.89
71096;DHT22;58753;49.440;11.126;2024-02-26T05:23:30;1.79;91.92
71096;DHT22;58753;49.440;11.126;2024-02-26T05:25:55;1.78;91.85
71096;DHT22;58753;49.440;11.126;2024-02-26T05:28:21;1.81;91.90
71096;DHT22;58753;49.440;11.126;2024-02-26T05:30:46;1.82;92.05
71096;DHT22;58753;49.440;11.126;2024-02-26T05:33:12;1.86;92.18
71096;DHT22;58753;49.440;11.126;2024-02-26T05:35:37;1.86;92.15
71096;DHT22;58753;49.440;11.126;2024-02-26T05:38:03;1.92;92.16
71096;DHT22;58753;49.440;11.126;2024-02-26T05:40:29;1.97;92.22
71096;DHT22;58753;49.440;11.126;2024-02-26T05:42:55;2.01;92.17
71096;DHT22;58753;49.440;11.126;2024-02-26T05:45:20;2.02;92.05
71096;DHT22;58753;49.440;11.126;2024-02-26T05:47:47;2.05;91.99
71096;DHT22;58753;49.440;11.126;2024-02-26T05:50:13;2.08;92.04
71096;DHT22;58753;49.440;11.126;2024-02-26T05:52:39;2.08;92.01
71096;DHT22;58753;49.440;11.126;2024-02-26T05:55:05;2.09;91.95
71096;DHT22;58753;49.440;11.126;2024-02-26T05:57:32;2.12;92.09
71096;DHT22;58753;49.440;11.126;2024-02-26T05:59:58;2.16;92.06
71096;DHT22;58753;49.440;11.126;2024-02-26T06:02:28;2.22;92.10
71096;DHT22;58753;49.440;11.126;2024-02-26T06:04:53;2.25;92.07
71096;DHT22;58753;49.440;11.126;2024-02-26T06:07:19;2.32;91.97
71096;DHT22;58753;49.440;11.126;2024-02-26T06:09:44;2.32;92.03
71096;DHT22;58753;49.440;11.126;2024-02-26T06:12:10;2.36;92.03
71096;DHT22;58753;49.440;11.126;2024-02-26T06:14:35;2.42;92.05
71096;DHT22;58753;49.440;11.126;2024-02-26T06:17:01;2.40;91.96
71096;DHT22;58753;49.440;11.126;2024-02-26T06:19:29;2.46;91.99
71096;DHT22;58753;49.440;11.126;2024-02-26T06:21:55;2.44;91.93
71096;DHT22;58753;49.440;11.126;2024-02-26T06:24:20;2.47;91.91
71096;DHT22;58753;49.440;11.126;2024-02-26T06:26:47;2.50;91.96
71096;DHT22;58753;49.440;11.126;2024-02-26T06:29:13;2.52;91.96
71096;DHT22;58753;49.440;11.126;2024-02-26T06:31:38;2.54;91.94
71096;DHT22;58753;49.440;11.126;2024-02-26T06:34:04;2.58;91.73
71096;DHT22;58753;49.440;11.126;2024-02-26T06:36:29;2.58;91.68
71096;DHT22;58753;49.440;11.126;2024-02-26T06:38:57;2.60;91.70
71096;DHT22;58753;49.440;11.126;2024-02-26T06:41:22;2.66;91.69
71096;DHT22;58753;49.440;11.126;2024-02-26T06:43:55;2.68;91.79
71096;DHT22;58753;49.440;11.126;2024-02-26T06:46:20;2.74;91.72
71096;DHT22;58753;49.440;11.126;2024-02-26T06:48:47;2.81;91.63
71096;DHT22;58753;49.440;11.126;2024-02-26T06:51:13;2.84;91.63
71096;DHT22;58753;49.440;11.126;2024-02-26T06:53:39;2.90;91.55
71096;DHT22;58753;49.440;11.126;2024-02-26T06:56:04;2.94;91.52
71096;DHT22;58753;49.440;11.126;2024-02-26T06:58:30;2.98;91.48
71096;DHT22;58753;49.440;11.126;2024-02-26T07:00:55;3.03;91.44
71096;DHT22;58753;49.440;11.126;2024-02-26T07:03:20;3.14;91.52
71096;DHT22;58753;49.440;11.126;2024-02-26T07:05:48;3.19;91.34
71096;DHT22;58753;49.440;11.126;2024-02-26T07:08:13;3.27;91.29
71096;DHT22;58753;49.440;11.126;2024-02-26T07:10:39;3.34;91.24
71096;DHT22;58753;49.440;11.126;2024-02-26T07:13:04;3.42;91.29
71096;DHT22;58753;49.440;11.126;2024-02-26T07:15:29;3.48;91.23
71096;DHT22;58753;49.440;11.126;2024-02-26T07:17:55;3.55;91.09
71096;DHT22;58753;49.440;11.126;2024-02-26T07:20:20;3.62;91.02
71096;DHT22;58753;49.440;11.126;2024-02-26T07:22:46;3.66;90.87
71096;DHT22;58753;49.440;11.126;2024-02-26T07:25:11;3.72;90.65
71096;DHT22;58753;49.440;11.126;2024-02-26T07:27:39;3.78;90.63
71096;DHT22;58753;49.440;11.126;2024-02-26T07:30:06;3.80;89.99
71096;DHT22;58753;49.440;11.126;2024-02-26T07:32:31;3.93;89.76
71096;DHT22;58753;49.440;11.126;2024-02-26T07:34:57;4.09;89.91
71096;DHT22;58753;49.440;11.126;2024-02-26T07:37:22;4.21;89.61
71096;DHT22;58753;49.440;11.126;2024-02-26T07:39:48;4.37;89.60
71096;DHT22;58753;49.440;11.126;2024-02-26T07:42:13;4.53;89.56
71096;DHT22;58753;49.440;11.126;2024-02-26T07:44:38;4.67;89.23
71096;DHT22;58753;49.440;11.126;2024-02-26T07:47:08;4.84;89.15
71096;DHT22;58753;49.440;11.126;2024-02-26T07:49:34;4.98;88.84
71096;DHT22;58753;49.440;11.126;2024-02-26T07:51:59;5.12;88.64
71096;DHT22;58753;49.440;11.126;2024-02-26T07:54:25;5.20;88.31
71096;DHT22;58753;49.440;11.126;2024-02-26T07:56:50;5.30;88.17
71096;DHT22;58753;49.440;11.126;2024-02-26T07:59:16;5.42;87.74
71096;DHT22;58753;49.440;11.126;2024-02-26T08:01:41;5.49;87.57
71096;DHT22;58753;49.440;11.126;2024-02-26T08:04:07;5.57;87.21
71096;DHT22;58753;49.440;11.126;2024-02-26T08:06:32;5.61;86.79
71096;DHT22;58753;49.440;11.126;2024-02-26T08:08:58;5.70;86.59
71096;DHT22;58753;49.440;11.126;2024-02-26T08:11:23;5.77;85.94
71096;DHT22;58753;49.440;11.126;2024-02-26T08:13:48;5.81;85.70
71096;DHT22;58753;49.440;11.126;2024-02-26T08:16:14;5.83;85.28
71096;DHT22;58753;49.440;11.126;2024-02-26T08:18:39;5.83;84.70
71096;DHT22;58753;49.440;11.126;2024-02-26T08:21:05;5.83;84.25
71096;DHT22;58753;49.440;11.126;2024-02-26T08:23:30;5.78;83.74
71096;DHT22;58753;49.440;11.126;2024-02-26T08:25:57;5.77;83.34
71096;DHT22;58753;49.440;11.126;2024-02-26T08:28:22;5.77;83.26
71096;DHT22;58753;49.440;11.126;2024-02-26T08:30:48;5.81;83.27
71096;DHT22;58753;49.440;11.126;2024-02-26T08:33:13;5.83;82.99
71096;DHT22;58753;49.440;11.126;2024-02-26T08:35:39;5.84;82.68
71096;DHT22;58753;49.440;11.126;2024-02-26T08:38:04;5.90;82.50
71096;DHT22;58753;49.440;11.126;2024-02-26T08:40:30;5.93;82.28
71096;DHT22;58753;49.440;11.126;2024-02-26T08:42:55;5.95;82.03
71096;DHT22;58753;49.440;11.126;2024-02-26T08:45:21;6.02;81.66
71096;DHT22;58753;49.440;11.126;2024-02-26T08:47:46;6.15;81.82
71096;DHT22;58753;49.440;11.126;2024-02-26T08:50:12;6.28;81.47
71096;DHT22;58753;49.440;11.126;2024-02-26T08:52:38;6.39;81.31
71096;DHT22;58753;49.440;11.126;2024-02-26T08:55:04;6.52;81.15
71096;DHT22;58753;49.440;11.126;2024-02-26T08:57:31;6.68;80.94
71096;DHT22;58753;49.440;11.126;2024-02-26T08:59:58;6.82;80.40
71096;DHT22;58753;49.440;11.126;2024-02-26T09:02:23;6.95;80.02
71096;DHT22;58753;49.440;11.126;2024-02-26T09:04:49;7.07;79.45
71096;DHT22;58753;49.440;11.126;2024-02-26T09:07:16;7.16;78.54
71096;DHT22;58753;49.440;11.126;2024-02-26T09:09:41;7.26;78.15
71096;DHT22;58753;49.440;11.126;2024-02-26T09:12:07;7.43;77.71
71096;DHT22;58753;49.440;11.126;2024-02-26T09:14:32;7.55;76.95
71096;DHT22;58753;49.440;11.126;2024-02-26T09:16:58;7.77;76.76
71096;DHT22;58753;49.440;11.126;2024-02-26T09:19:25;7.99;76.47
71096;DHT22;58753;49.440;11.126;2024-02-26T09:21:51;8.07;75.21
71096;DHT22;58753;49.440;11.126;2024-02-26T09:24:16;8.14;75.05
71096;DHT22;58753;49.440;11.126;2024-02-26T09:26:42;8.25;74.81
71096;DHT22;58753;49.440;11.126;2024-02-26T09:29:07;8.33;73.59
71096;DHT22;58753;49.440;11.126;2024-02-26T09:31:33;8.54;73.72
71096;DHT22;58753;49.440;11.126;2024-02-26T09:33:59;8.68;73.02
71096;DHT22;58753;49.440;11.126;2024-02-26T09:36:24;8.80;72.38
71096;DHT22;58753;49.440;11.126;2024-02-26T09:38:50;8.88;71.68
71096;DHT22;58753;49.440;11.126;2024-02-26T09:41:15;8.94;70.81
71096;DHT22;58753;49.440;11.126;2024-02-26T09:43:45;9.01;70.20
71096;DHT22;58753;49.440;11.126;2024-02-26T09:46:11;9.07;69.42
71096;DHT22;58753;49.440;11.126;2024-02-26T09:48:37;9.17;68.67
71096;DHT22;58753;49.440;11.126;2024-02-26T09:51:03;9.28;68.36
71096;DHT22;58753;49.440;11.126;2024-02-26T09:53:30;9.32;67.72
71096;DHT22;58753;49.440;11.126;2024-02-26T09:56:00;9.39;67.35
71096;DHT22;58753;49.440;11.126;2024-02-26T09:58:30;9.48;66.72
71096;DHT22;58753;49.440;11.126;2024-02-26T10:01:00;9.55;66.12
71096;DHT22;58753;49.440;11.126;2024-02-26T10:03:31;9.58;65.81
71096;DHT22;58753;49.440;11.126;2024-02-26T10:05:59;9.69;65.73
71096;DHT22;58753;49.440;11.126;2024-02-26T10:08:28;9.72;65.03
71096;DHT22;58753;49.440;11.126;2024-02-26T10:10:54;9.63;63.69
71096;DHT22;58753;49.440;11.126;2024-02-26T10:13:19;9.60;63.25
71096;DHT22;58753;49.440;11.126;2024-02-26T10:15:45;9.60;63.23
71096;DHT22;58753;49.440;11.126;2024-02-26T10:18:11;9.60;62.87
71096;DHT22;58753;49.440;11.126;2024-02-26T10:20:36;9.69;62.78
71096;DHT22;58753;49.440;11.126;2024-02-26T10:23:03;9.78;62.31
71096;DHT22;58753;49.440;11.126;2024-02-26T10:25:30;9.80;61.46
71096;DHT22;58753;49.440;11.126;2024-02-26T10:28:00;9.85;61.00
71096;DHT22;58753;49.440;11.126;2024-02-26T10:30:28;9.87;60.81
71096;DHT22;58753;49.440;11.126;2024-02-26T10:32:54;9.89;60.24
71096;DHT22;58753;49.440;11.126;2024-02-26T10:35:19;9.97;60.27
71096;DHT22;58753;49.440;11.126;2024-02-26T10:37:46;9.94;59.59
71096;DHT22;58753;49.440;11.126;2024-02-26T10:40:13;10.10;59.80
71096;DHT22;58753;49.440;11.126;2024-02-26T10:42:38;10.25;59.68
71096;DHT22;58753;49.440;11.126;2024-02-26T10:45:05;10.43;59.49
71096;DHT22;58753;49.440;11.126;2024-02-26T10:47:31;10.58;59.26
71096;DHT22;58753;49.440;11.126;2024-02-26T10:49:59;10.69;59.10
71096;DHT22;58753;49.440;11.126;2024-02-26T10:52:25;10.82;58.95
71096;DHT22;58753;49.440;11.126;2024-02-26T10:54:54;10.91;58.49
71096;DHT22;58753;49.440;11.126;2024-02-26T10:57:22;11.01;58.08
71096;DHT22;58753;49.440;11.126;2024-02-26T10:59:50;11.14;57.69
71096;DHT22;58753;49.440;11.126;2024-02-26T11:02:17;11.23;57.02
71096;DHT22;58753;49.440;11.126;2024-02-26T11:04:43;11.33;56.96
71096;DHT22;58753;49.440;11.126;2024-02-26T11:07:09;11.38;56.60
71096;DHT22;58753;49.440;11.126;2024-02-26T11:09:35;11.38;56.26
71096;DHT22;58753;49.440;11.126;2024-02-26T11:12:02;11.38;55.47
71096;DHT22;58753;49.440;11.126;2024-02-26T11:14:29;11.52;55.64
71096;DHT22;58753;49.440;11.126;2024-02-26T11:16:55;11.74;55.51
71096;DHT22;58753;49.440;11.126;2024-02-26T11:19:21;11.94;54.47
71096;DHT22;58753;49.440;11.126;2024-02-26T11:21:47;12.30;54.05
71096;DHT22;58753;49.440;11.126;2024-02-26T11:24:14;12.68;51.79
71096;DHT22;58753;49.440;11.126;2024-02-26T11:26:46;13.91;51.08
71096;DHT22;58753;49.440;11.126;2024-02-26T11:29:18;14.87;50.38
71096;DHT22;58753;49.440;11.126;2024-02-26T11:31:46;15.58;49.18
71096;DHT22;58753;49.440;11.126;2024-02-26T11:34:12;16.90;48.51
71096;DHT22;58753;49.440;11.126;2024-02-26T11:36:38;17.42;46.03
71096;DHT22;58753;49.440;11.126;2024-02-26T11:39:04;18.02;44.26
71096;DHT22;58753;49.440;11.126;2024-02-26T11:41:31;18.56;42.99
71096;DHT22;58753;49.440;11.126;2024-02-26T11:44:03;18.71;41.01
71096;DHT22;58753;49.440;11.126;2024-02-26T11:46:33;18.71;40.28
71096;DHT22;58753;49.440;11.126;2024-02-26T11:51:51;17.83;37.36
71096;DHT22;58753;49.440;11.126;2024-02-26T11:57:39;18.30;38.95
71096;DHT22;58753;49.440;11.126;2024-02-26T12:00:15;18.61;36.19
71096;DHT22;58753;49.440;11.126;2024-02-26T12:02:51;19.05;37.73
71096;DHT22;58753;49.440;11.126;2024-02-26T12:05:23;19.38;36.61
71096;DHT22;58753;49.440;11.126;2024-02-26T12:07:53;19.82;36.42
71096;DHT22;58753;49.440;11.126;2024-02-26T12:10:25;20.09;35.00
71096;DHT22;58753;49.440;11.126;2024-02-26T12:12:58;20.27;34.87
71096;DHT22;58753;49.440;11.126;2024-02-26T12:15:30;20.37;34.73
71096;DHT22;58753;49.440;11.126;2024-02-26T12:17:56;20.41;33.78
71096;DHT22;58753;49.440;11.126;2024-02-26T12:20:21;20.58;33.12
71096;DHT22;58753;49.440;11.126;2024-02-26T12:22:47;21.00;33.32
71096;DHT22;58753;49.440;11.126;2024-02-26T12:25:15;21.16;32.18
71096;DHT22;58753;49.440;11.126;2024-02-26T12:27:41;21.36;32.74
71096;DHT22;58753;49.440;11.126;2024-02-26T12:30:07;21.73;31.88
71096;DHT22;58753;49.440;11.126;2024-02-26T12:32:33;21.91;31.30
71096;DHT22;58753;49.440;11.126;2024-02-26T12:35:00;22.28;31.32
71096;DHT22;58753;49.440;11.126;2024-02-26T12:37:26;21.38;29.30
71096;DHT22;58753;49.440;11.126;2024-02-26T12:39:52;19.62;29.71
71096;DHT22;58753;49.440;11.126;2024-02-26T12:42:18;18.50;31.25
71096;DHT22;58753;49.440;11.126;2024-02-26T12:44:45;18.12;33.02
71096;DHT22;58753;49.440;11.126;2024-02-26T12:47:11;18.29;33.86
71096;DHT22;58753;49.440;11.126;2024-02-26T12:49:42;18.85;34.42
71096;DHT22;58753;49.440;11.126;2024-02-26T12:52:08;19.23;33.77
71096;DHT22;58753;49.440;11.126;2024-02-26T12:54:33;19.61;33.33
71096;DHT22;58753;49.440;11.126;2024-02-26T12:57:05;20.17;32.62
71096;DHT22;58753;49.440;11.126;2024-02-26T12:59:33;20.31;30.01
71096;DHT22;58753;49.440;11.126;2024-02-26T13:02:00;20.16;29.09
71096;DHT22;58753;49.440;11.126;2024-02-26T13:04:28;19.90;29.26
71096;DHT22;58753;49.440;11.126;2024-02-26T13:06:53;20.14;31.28
71096;DHT22;58753;49.440;11.126;2024-02-26T13:09:19;20.31;30.10
71096;DHT22;58753;49.440;11.126;2024-02-26T13:11:44;20.27;29.77
71096;DHT22;58753;49.440;11.126;2024-02-26T13:14:23;20.13;31.04
71096;DHT22;58753;49.440;11.126;2024-02-26T13:16:55;19.97;29.60
71096;DHT22;58753;49.440;11.126;2024-02-26T13:19:21;19.98;30.23
71096;DHT22;58753;49.440;11.126;2024-02-26T13:21:46;20.12;30.02
71096;DHT22;58753;49.440;11.126;2024-02-26T13:24:15;20.27;29.41
71096;DHT22;58753;49.440;11.126;2024-02-26T13:26:41;19.65;28.07
71096;DHT22;58753;49.440;11.126;2024-02-26T13:29:07;18.70;29.22
71096;DHT22;58753;49.440;11.126;2024-02-26T13:31:39;17.93;29.46
71096;DHT22;58753;49.440;11.126;2024-02-26T13:34:07;17.22;29.54
71096;DHT22;58753;49.440;11.126;2024-02-26T13:36:32;16.66;30.39
71096;DHT22;58753;49.440;11.126;2024-02-26T13:38:58;16.19;31.20
71096;DHT22;58753;49.440;11.126;2024-02-26T13:41:23;15.75;31.48
71096;DHT22;58753;49.440;11.126;2024-02-26T13:43:50;15.33;32.21
71096;DHT22;58753;49.440;11.126;2024-02-26T13:46:16;15.00;32.92
71096;DHT22;58753;49.440;11.126;2024-02-26T13:48:42;14.77;33.94
71096;DHT22;58753;49.440;11.126;2024-02-26T13:51:08;14.63;34.67
71096;DHT22;58753;49.440;11.126;2024-02-26T13:53:33;14.55;35.49
71096;DHT22;58753;49.440;11.126;2024-02-26T13:55:58;14.48;35.92
71096;DHT22;58753;49.440;11.126;2024-02-26T13:58:27;14.41;36.59
71096;DHT22;58753;49.440;11.126;2024-02-26T14:00:53;14.33;37.10
71096;DHT22;58753;49.440;11.126;2024-02-26T14:03:20;14.22;37.38
71096;DHT22;58753;49.440;11.126;2024-02-26T14:05:45;14.12;37.50
71096;DHT22;58753;49.440;11.126;2024-02-26T14:08:11;14.05;37.95
71096;DHT22;58753;49.440;11.126;2024-02-26T14:10:36;13.94;38.27
71096;DHT22;58753;49.440;11.126;2024-02-26T14:13:03;13.92;38.79
71096;DHT22;58753;49.440;11.126;2024-02-26T14:15:28;13.89;39.07
71096;DHT22;58753;49.440;11.126;2024-02-26T14:17:54;13.82;39.28
71096;DHT22;58753;49.440;11.126;2024-02-26T14:20:22;13.74;39.47
71096;DHT22;58753;49.440;11.126;2024-02-26T14:22:48;13.64;39.81
71096;DHT22;58753;49.440;11.126;2024-02-26T14:25:14;13.51;39.97
71096;DHT22;58753;49.440;11.126;2024-02-26T14:27:39;13.39;40.26
71096;DHT22;58753;49.440;11.126;2024-02-26T14:30:06;13.28;40.40
71096;DHT22;58753;49.440;11.126;2024-02-26T14:32:31;13.20;40.77
71096;DHT22;58753;49.440;11.126;2024-02-26T14:35:01;13.16;41.04
71096;DHT22;58753;49.440;11.126;2024-02-26T14:37:28;13.10;41.47
71096;DHT22;58753;49.440;11.126;2024-02-26T14:39:53;12.97;41.80
71096;DHT22;58753;49.440;11.126;2024-02-26T14:42:19;12.89;42.21
71096;DHT22;58753;49.440;11.126;2024-02-26T14:44:44;12.82;42.41
71096;DHT22;58753;49.440;11.126;2024-02-26T14:47:11;12.76;42.56
71096;DHT22;58753;49.440;11.126;2024-02-26T14:49:37;12.69;42.74
71096;DHT22;58753;49.440;11.126;2024-02-26T14:52:02;12.61;43.08
71096;DHT22;58753;49.440;11.126;2024-02-26T14:54:28;12.55;43.36
71096;DHT22;58753;49.440;11.126;2024-02-26T14:56:58;12.46;44.02
71096;DHT22;58753;49.440;11.126;2024-02-26T14:59:23;12.37;44.25
71096;DHT22;58753;49.440;11.126;2024-02-26T15:01:48;12.28;44.84
71096;DHT22;58753;49.440;11.126;2024-02-26T15:04:14;12.20;45.56
71096;DHT22;58753;49.440;11.126;2024-02-26T15:06:39;12.11;46.22
71096;DHT22;58753;49.440;11.126;2024-02-26T15:09:05;11.98;46.65
71096;DHT22;58753;49.440;11.126;2024-02-26T15:11:30;11.94;47.14
71096;DHT22;58753;49.440;11.126;2024-02-26T15:13:56;11.89;47.47
71096;DHT22;58753;49.440;11.126;2024-02-26T15:16:21;11.80;47.77
71096;DHT22;58753;49.440;11.126;2024-02-26T15:18:47;11.73;48.33
71096;DHT22;58753;49.440;11.126;2024-02-26T15:21:13;11.67;48.48
71096;DHT22;58753;49.440;11.126;2024-02-26T15:23:40;11.62;48.85
71096;DHT22;58753;49.440;11.126;2024-02-26T15:26:05;11.53;49.30